createdAt,value
2018-08-19T00:00:45.542Z,5.91
2018-08-19T00:01:45.995Z,5.94
2018-08-19T00:02:46.469Z,5.88
2018-08-19T00:03:46.949Z,5.84
2018-08-19T00:04:47.415Z,5.77
2018-08-19T00:05:47.889Z,5.70
2018-08-19T00:06:48.363Z,5.64
2018-08-19T00:07:48.840Z,5.62
2018-08-19T00:08:49.311Z,5.60
2018-08-19T00:09:49.787Z,5.60
2018-08-19T00:10:50.260Z,5.60
2018-08-19T00:11:50.736Z,5.59
2018-08-19T00:12:51.212Z,5.57
2018-08-19T00:13:51.686Z,5.58
2018-08-19T00:14:52.160Z,5.59
2018-08-19T00:15:52.635Z,5.60
2018-08-19T00:16:53.114Z,5.60
2018-08-19T00:17:53.584Z,5.56
2018-08-19T00:18:54.060Z,5.58
2018-08-19T00:19:54.535Z,5.57
2018-08-19T00:20:55.010Z,5.58
2018-08-19T00:21:55.488Z,5.58
2018-08-19T00:22:55.961Z,5.56
2018-08-19T00:23:56.436Z,5.58
2018-08-19T00:24:56.909Z,5.57
2018-08-19T00:25:57.383Z,5.58
2018-08-19T00:26:57.858Z,5.60
2018-08-19T00:27:58.335Z,5.61
2018-08-19T00:28:58.810Z,5.57
2018-08-19T00:29:59.280Z,5.58
2018-08-19T00:30:59.755Z,5.63
2018-08-19T00:32:00.228Z,5.66
2018-08-19T00:33:00.703Z,5.66
2018-08-19T00:34:01.176Z,5.66
2018-08-19T00:35:01.652Z,5.62
2018-08-19T00:36:02.123Z,5.58
2018-08-19T00:37:02.597Z,5.56
2018-08-19T00:38:03.069Z,5.55
2018-08-19T00:39:03.541Z,5.56
2018-08-19T00:40:04.015Z,5.56
2018-08-19T00:41:04.490Z,5.59
2018-08-19T00:42:04.960Z,5.62
2018-08-19T00:43:05.434Z,5.67
2018-08-19T00:44:05.907Z,5.70
2018-08-19T00:45:06.383Z,5.74
2018-08-19T00:46:06.850Z,5.78
2018-08-19T00:47:07.325Z,5.79
2018-08-19T00:48:07.793Z,5.75
2018-08-19T00:49:08.267Z,5.76
2018-08-19T00:50:08.738Z,5.78
2018-08-19T00:51:09.412Z,5.78
2018-08-19T00:52:09.681Z,5.75
2018-08-19T00:53:10.155Z,5.72
2018-08-19T00:54:10.624Z,5.72
2018-08-19T00:55:11.119Z,5.70
2018-08-19T00:56:11.569Z,5.71
2018-08-19T00:57:12.040Z,5.70
2018-08-19T00:58:12.511Z,5.69
2018-08-19T00:59:12.980Z,5.68
2018-08-19T01:00:13.455Z,5.70
2018-08-19T01:01:13.925Z,5.68
2018-08-19T01:02:14.393Z,5.66
2018-08-19T01:03:14.865Z,5.68
2018-08-19T01:04:15.337Z,5.66
2018-08-19T01:05:15.807Z,5.68
2018-08-19T01:06:16.277Z,5.70
2018-08-19T01:07:16.752Z,5.68
2018-08-19T01:08:17.224Z,5.71
2018-08-19T01:09:17.695Z,5.70
2018-08-19T01:10:18.166Z,5.70
2018-08-19T01:11:18.639Z,5.70
2018-08-19T01:12:19.108Z,5.66
2018-08-19T01:13:19.579Z,5.62
2018-08-19T01:14:20.053Z,5.60
2018-08-19T01:15:20.525Z,5.61
2018-08-19T01:16:21.002Z,5.60
2018-08-19T01:17:21.472Z,5.58
2018-08-19T01:18:21.944Z,5.58
2018-08-19T01:19:22.415Z,5.64
2018-08-19T01:20:22.895Z,5.64
2018-08-19T01:21:23.364Z,5.63
2018-08-19T01:22:23.838Z,5.57
2018-08-19T01:23:24.311Z,5.60
2018-08-19T01:24:24.786Z,5.62
2018-08-19T01:25:25.260Z,5.61
2018-08-19T01:26:25.733Z,5.57
2018-08-19T01:27:26.208Z,5.57
2018-08-19T01:28:26.684Z,5.61
2018-08-19T01:29:27.160Z,5.68
2018-08-19T01:30:27.836Z,5.66
2018-08-19T01:31:28.108Z,5.67
2018-08-19T01:32:28.584Z,5.67
2018-08-19T01:33:29.058Z,5.63
2018-08-19T01:34:29.545Z,5.64
2018-08-19T01:35:30.008Z,5.65
2018-08-19T01:36:30.482Z,5.68
2018-08-19T01:37:30.958Z,5.66
2018-08-19T01:38:31.434Z,5.69
2018-08-19T01:39:31.908Z,5.68
2018-08-19T01:40:32.381Z,5.69
2018-08-19T01:41:32.859Z,5.66
2018-08-19T01:42:33.329Z,5.62
2018-08-19T01:43:33.805Z,5.60
2018-08-19T01:44:34.283Z,5.55
2018-08-19T01:45:34.754Z,5.54
2018-08-19T01:46:35.227Z,5.54
2018-08-19T01:47:35.702Z,5.54
2018-08-19T01:48:36.178Z,5.56
2018-08-19T01:49:36.648Z,5.59
2018-08-19T01:50:37.124Z,5.56
2018-08-19T01:51:37.596Z,5.54
2018-08-19T01:52:38.070Z,5.56
2018-08-19T01:53:38.543Z,5.56
2018-08-19T01:54:39.015Z,5.56
2018-08-19T01:55:39.489Z,5.44
2018-08-19T01:56:39.961Z,5.24
2018-08-19T01:57:40.437Z,5.11
2018-08-19T01:58:40.906Z,5.04
2018-08-19T01:59:41.379Z,5.02
2018-08-19T02:00:41.852Z,5.02
2018-08-19T02:01:42.323Z,5.03
2018-08-19T02:02:42.795Z,5.04
2018-08-19T02:03:43.473Z,5.06
2018-08-19T02:04:43.737Z,5.08
2018-08-19T02:05:44.210Z,5.06
2018-08-19T02:06:44.682Z,5.04
2018-08-19T02:07:45.187Z,5.00
2018-08-19T02:08:45.640Z,4.98
2018-08-19T02:09:46.102Z,4.98
2018-08-19T02:10:46.587Z,4.98
2018-08-19T02:11:47.039Z,5.01
2018-08-19T02:12:47.516Z,5.03
2018-08-19T02:13:47.981Z,5.06
2018-08-19T02:14:48.453Z,5.07
2018-08-19T02:15:48.922Z,5.08
2018-08-19T02:16:49.393Z,5.06
2018-08-19T02:17:49.865Z,5.05
2018-08-19T02:18:50.334Z,5.04
2018-08-19T02:19:50.810Z,5.06
2018-08-19T02:20:51.279Z,5.08
2018-08-19T02:21:51.753Z,5.12
2018-08-19T02:22:52.221Z,5.14
2018-08-19T02:23:52.692Z,5.14
2018-08-19T02:24:53.165Z,5.15
2018-08-19T02:25:53.637Z,5.17
2018-08-19T02:26:54.108Z,5.21
2018-08-19T02:27:54.580Z,5.26
2018-08-19T02:28:55.053Z,5.33
2018-08-19T02:29:55.526Z,5.38
2018-08-19T02:30:56.000Z,5.42
2018-08-19T02:31:56.471Z,5.45
2018-08-19T02:32:56.946Z,5.47
2018-08-19T02:33:57.416Z,5.46
2018-08-19T02:34:57.895Z,5.45
2018-08-19T02:35:58.363Z,5.44
2018-08-19T02:36:58.837Z,5.40
2018-08-19T02:37:59.311Z,5.42
2018-08-19T02:38:59.784Z,5.43
2018-08-19T02:40:00.258Z,5.42
2018-08-19T02:41:00.735Z,5.50
2018-08-19T02:42:01.213Z,5.57
2018-08-19T02:43:01.681Z,5.64
2018-08-19T02:44:02.158Z,5.69
2018-08-19T02:45:02.632Z,5.71
2018-08-19T02:46:03.111Z,5.70
2018-08-19T02:47:03.582Z,5.66
2018-08-19T02:48:04.056Z,5.68
2018-08-19T02:49:04.533Z,5.71
2018-08-19T02:50:05.008Z,5.75
2018-08-19T02:51:05.482Z,5.83
2018-08-19T02:52:05.956Z,5.92
2018-08-19T02:53:06.431Z,5.97
2018-08-19T02:54:06.905Z,6.00
2018-08-19T02:55:07.380Z,6.00
2018-08-19T02:56:07.855Z,5.96
2018-08-19T02:57:08.332Z,5.94
2018-08-19T02:58:08.803Z,5.98
2018-08-19T02:59:09.277Z,6.02
2018-08-19T03:00:09.750Z,6.03
2018-08-19T03:01:10.224Z,6.04
2018-08-19T03:02:10.697Z,6.07
2018-08-19T03:03:11.169Z,6.08
2018-08-19T03:04:11.648Z,6.06
2018-08-19T03:05:12.170Z,6.03
2018-08-19T03:06:12.591Z,6.04
2018-08-19T03:07:13.063Z,6.04
2018-08-19T03:08:13.539Z,6.02
2018-08-19T03:09:14.010Z,6.00
2018-08-19T03:10:14.483Z,5.96
2018-08-19T03:11:15.002Z,5.96
2018-08-19T03:12:15.425Z,5.98
2018-08-19T03:13:15.900Z,5.96
2018-08-19T03:14:16.371Z,5.94
2018-08-19T03:15:16.896Z,5.95
2018-08-19T03:16:17.314Z,5.90
2018-08-19T03:17:17.786Z,5.86
2018-08-19T03:18:18.259Z,5.86
2018-08-19T03:19:18.731Z,5.84
2018-08-19T03:20:19.202Z,5.82
2018-08-19T03:21:19.674Z,5.86
2018-08-19T03:22:20.142Z,5.85
2018-08-19T03:23:20.617Z,5.92
2018-08-19T03:24:21.085Z,5.96
2018-08-19T03:25:21.558Z,6.04
2018-08-19T03:26:22.028Z,6.06
2018-08-19T03:27:22.700Z,6.10
2018-08-19T03:28:22.969Z,6.12
2018-08-19T03:29:23.439Z,6.11
2018-08-19T03:30:23.923Z,6.09
2018-08-19T03:31:24.382Z,6.09
2018-08-19T03:32:24.853Z,6.06
2018-08-19T03:33:25.323Z,6.02
2018-08-19T03:34:25.796Z,6.02
2018-08-19T03:35:26.267Z,6.03
2018-08-19T03:36:26.740Z,6.03
2018-08-19T03:37:27.213Z,6.03
2018-08-19T03:38:27.683Z,6.00
2018-08-19T03:39:28.154Z,6.00
2018-08-19T03:40:28.628Z,5.96
2018-08-19T03:41:29.097Z,5.96
2018-08-19T03:42:29.571Z,5.98
2018-08-19T03:43:30.043Z,6.01
2018-08-19T03:44:30.514Z,6.04
2018-08-19T03:45:31.040Z,6.10
2018-08-19T03:46:31.462Z,6.16
2018-08-19T03:47:31.932Z,6.12
2018-08-19T03:48:32.409Z,6.08
2018-08-19T03:49:32.881Z,6.04
2018-08-19T03:50:33.358Z,6.02
2018-08-19T03:51:33.830Z,5.98
2018-08-19T03:52:34.303Z,6.06
2018-08-19T03:53:34.777Z,6.16
2018-08-19T03:54:35.253Z,6.24
2018-08-19T03:55:35.727Z,6.32
2018-08-19T03:56:36.207Z,6.40
2018-08-19T03:57:36.683Z,6.48
2018-08-19T03:58:37.153Z,6.54
2018-08-19T03:59:37.625Z,6.67
2018-08-19T04:00:38.101Z,6.78
2018-08-19T04:01:38.576Z,6.87
2018-08-19T04:02:39.050Z,6.86
2018-08-19T04:03:39.525Z,6.89
2018-08-19T04:04:40.036Z,6.93
2018-08-19T04:05:40.476Z,6.96
2018-08-19T04:06:40.951Z,6.99
2018-08-19T04:07:41.422Z,7.04
2018-08-19T04:08:41.895Z,7.04
2018-08-19T04:09:42.370Z,7.07
2018-08-19T04:10:42.845Z,7.10
2018-08-19T04:11:43.318Z,7.12
2018-08-19T04:12:43.830Z,7.13
2018-08-19T04:13:44.275Z,7.14
2018-08-19T04:14:44.740Z,7.15
2018-08-19T04:15:45.213Z,7.18
2018-08-19T04:16:45.686Z,7.20
2018-08-19T04:17:46.160Z,7.20
2018-08-19T04:18:46.633Z,7.14
2018-08-19T04:19:47.110Z,7.06
2018-08-19T04:20:47.579Z,6.97
2018-08-19T04:21:48.051Z,6.88
2018-08-19T04:22:48.523Z,6.80
2018-08-19T04:23:48.995Z,6.73
2018-08-19T04:24:49.468Z,6.69
2018-08-19T04:25:49.940Z,6.66
2018-08-19T04:26:50.412Z,6.65
2018-08-19T04:27:50.881Z,6.64
2018-08-19T04:28:51.355Z,6.60
2018-08-19T04:29:51.829Z,6.60
2018-08-19T04:30:52.299Z,6.60
2018-08-19T04:31:52.771Z,6.60
2018-08-19T04:32:53.241Z,6.59
2018-08-19T04:33:53.713Z,6.58
2018-08-19T04:34:54.184Z,6.58
2018-08-19T04:35:54.659Z,6.59
2018-08-19T04:36:55.125Z,6.57
2018-08-19T04:37:55.600Z,6.56
2018-08-19T04:38:56.069Z,6.54
2018-08-19T04:39:56.540Z,6.58
2018-08-19T04:40:57.009Z,6.64
2018-08-19T04:41:57.479Z,6.65
2018-08-19T04:42:57.953Z,6.66
2018-08-19T04:43:58.422Z,6.68
2018-08-19T04:44:58.892Z,6.72
2018-08-19T04:45:59.365Z,6.74
2018-08-19T04:46:59.836Z,6.79
2018-08-19T04:48:00.306Z,6.81
2018-08-19T04:49:00.783Z,6.86
2018-08-19T04:50:01.249Z,6.89
2018-08-19T04:51:01.725Z,6.93
2018-08-19T04:52:02.193Z,6.96
2018-08-19T04:53:02.665Z,7.00
2018-08-19T04:54:03.139Z,7.02
2018-08-19T04:55:03.612Z,7.05
2018-08-19T04:56:04.083Z,7.07
2018-08-19T04:57:04.555Z,7.08
2018-08-19T04:58:05.030Z,7.08
2018-08-19T04:59:05.504Z,7.10
2018-08-19T05:00:05.976Z,7.14
2018-08-19T05:01:06.450Z,7.20
2018-08-19T05:02:06.967Z,7.28
2018-08-19T05:03:07.401Z,7.34
2018-08-19T05:04:07.872Z,7.39
2018-08-19T05:05:08.349Z,7.43
2018-08-19T05:06:08.821Z,7.50
2018-08-19T05:07:09.300Z,7.57
2018-08-19T05:08:09.872Z,7.60
2018-08-19T05:09:10.245Z,7.68
2018-08-19T05:10:10.721Z,7.73
2018-08-19T05:11:11.196Z,7.74
2018-08-19T05:12:11.667Z,7.74
2018-08-19T05:13:12.144Z,7.74
2018-08-19T05:14:12.621Z,7.78
2018-08-19T05:15:13.094Z,7.82
2018-08-19T05:16:13.569Z,7.90
2018-08-19T05:17:14.048Z,7.96
2018-08-19T05:18:14.518Z,8.01
2018-08-19T05:19:14.992Z,8.01
2018-08-19T05:20:15.469Z,8.02
2018-08-19T05:21:15.943Z,8.06
2018-08-19T05:22:16.415Z,8.15
2018-08-19T05:23:16.890Z,8.26
2018-08-19T05:24:17.365Z,8.32
2018-08-19T05:25:17.839Z,8.37
2018-08-19T05:26:18.311Z,8.41
2018-08-19T05:27:18.787Z,8.44
2018-08-19T05:28:19.282Z,8.44
2018-08-19T05:29:19.733Z,8.47
2018-08-19T05:30:20.206Z,8.47
2018-08-19T05:31:20.685Z,8.48
2018-08-19T05:32:21.151Z,8.54
2018-08-19T05:33:21.625Z,8.59
2018-08-19T05:34:22.096Z,8.59
2018-08-19T05:35:22.572Z,8.53
2018-08-19T05:36:23.044Z,8.44
2018-08-19T05:37:23.518Z,8.44
2018-08-19T05:38:23.988Z,8.44
2018-08-19T05:39:24.472Z,8.46
2018-08-19T05:40:24.931Z,8.50
2018-08-19T05:41:25.404Z,8.50
2018-08-19T05:42:25.880Z,8.52
2018-08-19T05:43:26.347Z,8.55
2018-08-19T05:44:26.819Z,8.57
2018-08-19T05:45:27.290Z,8.62
2018-08-19T05:46:27.762Z,8.67
2018-08-19T05:47:28.237Z,8.70
2018-08-19T05:48:28.709Z,8.75
2018-08-19T05:49:29.176Z,8.74
2018-08-19T05:50:29.649Z,8.72
2018-08-19T05:51:30.119Z,8.68
2018-08-19T05:52:30.590Z,8.73
2018-08-19T05:53:31.060Z,8.74
2018-08-19T05:54:31.531Z,8.76
2018-08-19T05:55:32.050Z,8.79
2018-08-19T05:56:32.473Z,8.76
2018-08-19T05:57:33.147Z,8.78
2018-08-19T05:58:33.417Z,8.84
2018-08-19T05:59:33.888Z,8.94
2018-08-19T06:00:34.358Z,9.00
2018-08-19T06:01:34.829Z,9.07
2018-08-19T06:02:35.301Z,9.18
2018-08-19T06:03:35.773Z,9.28
2018-08-19T06:04:36.248Z,9.34
2018-08-19T06:05:36.722Z,9.40
2018-08-19T06:06:37.191Z,9.44
2018-08-19T06:07:37.689Z,9.50
2018-08-19T06:08:38.134Z,9.56
2018-08-19T06:09:38.607Z,9.54
2018-08-19T06:10:39.081Z,9.58
2018-08-19T06:11:39.557Z,9.60
2018-08-19T06:12:40.029Z,9.63
2018-08-19T06:13:40.501Z,9.63
2018-08-19T06:14:40.975Z,9.70
2018-08-19T06:15:41.454Z,9.71
2018-08-19T06:16:41.922Z,9.70
2018-08-19T06:17:42.397Z,9.68
2018-08-19T06:18:42.875Z,9.70
2018-08-19T06:19:43.351Z,9.74
2018-08-19T06:20:43.822Z,9.78
2018-08-19T06:21:44.298Z,9.78
2018-08-19T06:22:44.774Z,9.79
2018-08-19T06:23:45.248Z,9.79
2018-08-19T06:24:45.838Z,9.80
2018-08-19T06:25:46.199Z,9.80
2018-08-19T06:26:46.674Z,9.80
2018-08-19T06:27:47.157Z,9.78
2018-08-19T06:28:47.625Z,9.80
2018-08-19T06:29:48.104Z,9.81
2018-08-19T06:30:48.576Z,9.81
2018-08-19T06:31:49.052Z,9.82
2018-08-19T06:32:49.527Z,9.82
2018-08-19T06:33:50.004Z,9.82
2018-08-19T06:34:50.673Z,9.78
2018-08-19T06:35:50.953Z,9.72
2018-08-19T06:36:51.427Z,9.69
2018-08-19T06:37:51.902Z,9.68
2018-08-19T06:38:52.589Z,9.71
2018-08-19T06:39:52.854Z,9.70
2018-08-19T06:40:53.329Z,9.66
2018-08-19T06:41:53.801Z,9.64
2018-08-19T06:42:54.281Z,9.67
2018-08-19T06:43:54.752Z,9.72
2018-08-19T06:44:55.227Z,9.76
2018-08-19T06:45:55.701Z,9.80
2018-08-19T06:46:56.176Z,9.82
2018-08-19T06:47:56.652Z,9.82
2018-08-19T06:48:57.127Z,9.82
2018-08-19T06:49:57.598Z,9.84
2018-08-19T06:50:58.073Z,9.80
2018-08-19T06:51:58.546Z,9.72
2018-08-19T06:52:59.023Z,9.73
2018-08-19T06:53:59.493Z,9.75
2018-08-19T06:54:59.969Z,9.74
2018-08-19T06:56:00.442Z,9.69
2018-08-19T06:57:00.917Z,9.66
2018-08-19T06:58:01.389Z,9.75
2018-08-19T06:59:01.862Z,9.84
2018-08-19T07:00:02.336Z,9.86
2018-08-19T07:01:02.809Z,9.83
2018-08-19T07:02:03.282Z,9.81
2018-08-19T07:03:03.758Z,9.83
2018-08-19T07:04:04.277Z,9.86
2018-08-19T07:05:04.700Z,9.88
2018-08-19T07:06:05.176Z,9.89
2018-08-19T07:07:05.655Z,9.86
2018-08-19T07:08:06.125Z,9.90
2018-08-19T07:09:06.595Z,9.94
2018-08-19T07:10:07.070Z,10.04
2018-08-19T07:11:07.543Z,10.14
2018-08-19T07:12:08.017Z,10.20
2018-08-19T07:13:08.488Z,10.22
2018-08-19T07:14:08.963Z,10.24
2018-08-19T07:15:09.434Z,10.21
2018-08-19T07:16:10.111Z,10.16
2018-08-19T07:17:10.382Z,10.12
2018-08-19T07:18:10.858Z,10.14
2018-08-19T07:19:11.331Z,10.16
2018-08-19T07:20:11.808Z,10.19
2018-08-19T07:21:12.304Z,10.22
2018-08-19T07:22:12.771Z,10.27
2018-08-19T07:23:13.229Z,10.36
2018-08-19T07:24:13.701Z,10.42
2018-08-19T07:25:14.178Z,10.46
2018-08-19T07:26:14.652Z,10.34
2018-08-19T07:27:15.127Z,10.39
2018-08-19T07:28:15.603Z,10.30
2018-08-19T07:29:16.078Z,10.24
2018-08-19T07:30:16.555Z,10.16
2018-08-19T07:31:17.031Z,10.18
2018-08-19T07:32:17.509Z,10.21
2018-08-19T07:33:17.983Z,10.27
2018-08-19T07:34:18.460Z,10.33
2018-08-19T07:35:18.939Z,10.44
2018-08-19T07:36:19.416Z,10.52
2018-08-19T07:37:19.894Z,10.58
2018-08-19T07:38:20.371Z,10.54
2018-08-19T07:39:20.849Z,10.40
2018-08-19T07:40:21.329Z,10.34
2018-08-19T07:41:21.807Z,10.32
2018-08-19T07:42:22.286Z,10.39
2018-08-19T07:43:22.766Z,10.46
2018-08-19T07:44:23.241Z,10.44
2018-08-19T07:46:24.197Z,10.37
2018-08-19T07:47:24.678Z,10.32
2018-08-19T07:48:25.157Z,10.14
2018-08-19T07:49:25.635Z,9.97
2018-08-19T07:50:26.113Z,9.79
2018-08-19T07:51:26.597Z,9.71
2018-08-19T07:52:27.274Z,9.62
2018-08-19T07:53:27.545Z,9.40
2018-08-19T07:54:28.024Z,9.23
2018-08-19T07:55:28.503Z,9.19
2018-08-19T07:56:28.984Z,9.27
2018-08-19T07:57:29.460Z,9.36
2018-08-19T07:58:29.937Z,9.44
2018-08-19T07:59:30.411Z,9.36
2018-08-19T08:00:30.887Z,9.38
2018-08-19T08:01:31.392Z,9.48
2018-08-19T08:02:31.851Z,9.57
2018-08-19T08:03:32.317Z,9.68
2018-08-19T08:04:32.795Z,9.81
2018-08-19T08:05:33.269Z,9.92
2018-08-19T08:06:33.746Z,9.88
2018-08-19T08:07:34.273Z,9.91
2018-08-19T08:08:34.703Z,9.98
2018-08-19T08:09:35.175Z,10.17
2018-08-19T08:10:35.653Z,10.17
2018-08-19T08:11:36.131Z,10.09
2018-08-19T08:12:36.660Z,9.94
2018-08-19T08:13:37.085Z,9.77
2018-08-19T08:14:37.565Z,9.86
2018-08-19T08:15:38.042Z,9.91
2018-08-19T08:16:38.517Z,9.90
2018-08-19T08:17:38.994Z,9.90
2018-08-19T08:18:39.471Z,9.90
2018-08-19T08:19:39.947Z,9.88
2018-08-19T08:20:40.424Z,9.82
2018-08-19T08:21:41.060Z,9.58
2018-08-19T08:22:41.380Z,9.51
2018-08-19T08:23:41.853Z,9.32
2018-08-19T08:24:42.332Z,9.28
2018-08-19T08:25:42.808Z,9.38
2018-08-19T08:26:43.285Z,9.48
2018-08-19T08:27:43.763Z,9.49
2018-08-19T08:28:44.239Z,9.66
2018-08-19T08:29:44.713Z,9.89
2018-08-19T08:30:45.199Z,10.07
2018-08-19T08:31:45.671Z,10.20
2018-08-19T08:32:46.199Z,10.24
2018-08-19T08:33:46.627Z,10.40
2018-08-19T08:34:47.102Z,10.56
2018-08-19T08:35:47.581Z,10.77
2018-08-19T08:36:48.058Z,10.94
2018-08-19T08:37:48.537Z,11.03
2018-08-19T08:38:49.015Z,11.04
2018-08-19T08:39:49.496Z,10.87
2018-08-19T08:40:49.972Z,10.79
2018-08-19T08:41:50.451Z,10.74
2018-08-19T08:42:50.931Z,10.58
2018-08-19T08:43:51.408Z,10.34
2018-08-19T08:44:51.888Z,10.16
2018-08-19T08:45:52.366Z,10.04
2018-08-19T08:46:52.847Z,9.84
2018-08-19T08:47:53.328Z,9.91
2018-08-19T08:48:53.801Z,10.19
2018-08-19T08:49:54.276Z,10.52
2018-08-19T08:50:54.756Z,10.82
2018-08-19T08:51:55.236Z,10.98
2018-08-19T08:52:55.715Z,11.03
2018-08-19T08:53:56.190Z,10.84
2018-08-19T08:54:56.669Z,10.76
2018-08-19T08:55:57.147Z,10.70
2018-08-19T08:56:57.626Z,10.60
2018-08-19T08:57:58.104Z,10.66
2018-08-19T08:58:58.579Z,10.84
2018-08-19T08:59:59.057Z,10.87
2018-08-19T09:00:59.535Z,10.78
2018-08-19T09:02:00.218Z,10.82
2018-08-19T09:03:00.491Z,10.98
2018-08-19T09:04:00.966Z,10.96
2018-08-19T09:05:01.443Z,10.90
2018-08-19T09:06:01.920Z,11.00
2018-08-19T09:07:02.399Z,11.21
2018-08-19T09:08:02.877Z,11.40
2018-08-19T09:09:03.353Z,11.18
2018-08-19T09:10:03.828Z,10.97
2018-08-19T09:11:04.305Z,11.00
2018-08-19T09:12:04.783Z,11.10
2018-08-19T09:13:05.259Z,11.18
2018-08-19T09:14:05.735Z,11.32
2018-08-19T09:15:06.211Z,11.50
2018-08-19T09:16:06.687Z,11.65
2018-08-19T09:17:07.164Z,11.60
2018-08-19T09:18:07.642Z,11.50
2018-08-19T09:19:08.117Z,11.32
2018-08-19T09:20:08.591Z,11.18
2018-08-19T09:21:09.069Z,11.15
2018-08-19T09:22:09.543Z,11.31
2018-08-19T09:23:10.088Z,11.48
2018-08-19T09:24:10.497Z,11.61
2018-08-19T09:25:10.975Z,11.38
2018-08-19T09:26:11.449Z,10.88
2018-08-19T09:27:11.925Z,10.96
2018-08-19T09:28:12.400Z,11.06
2018-08-19T09:29:12.884Z,11.02
2018-08-19T09:30:13.352Z,10.97
2018-08-19T09:31:13.827Z,11.04
2018-08-19T09:32:14.302Z,11.24
2018-08-19T09:33:14.781Z,11.36
2018-08-19T09:34:15.253Z,11.44
2018-08-19T09:35:15.732Z,11.30
2018-08-19T09:36:16.208Z,11.27
2018-08-19T09:37:16.680Z,11.32
2018-08-19T09:38:17.205Z,11.58
2018-08-19T09:39:17.635Z,11.96
2018-08-19T09:40:18.107Z,12.26
2018-08-19T09:41:18.584Z,12.36
2018-08-19T09:42:19.056Z,12.23
2018-08-19T09:43:19.532Z,12.35
2018-08-19T09:44:20.009Z,12.28
2018-08-19T09:45:20.484Z,12.24
2018-08-19T09:46:20.959Z,12.27
2018-08-19T09:47:21.433Z,12.31
2018-08-19T09:48:21.911Z,12.13
2018-08-19T09:49:22.386Z,12.05
2018-08-19T09:50:22.859Z,12.03
2018-08-19T09:51:23.335Z,12.16
2018-08-19T09:52:23.810Z,11.99
2018-08-19T09:53:24.286Z,12.02
2018-08-19T09:54:24.759Z,12.18
2018-08-19T09:55:25.233Z,12.21
2018-08-19T09:56:25.710Z,12.04
2018-08-19T09:57:26.192Z,12.00
2018-08-19T09:58:26.660Z,12.10
2018-08-19T09:59:27.134Z,12.01
2018-08-19T10:00:27.610Z,11.59
2018-08-19T10:01:28.136Z,11.19
2018-08-19T10:02:28.561Z,11.14
2018-08-19T10:03:29.035Z,11.32
2018-08-19T10:04:29.511Z,11.44
2018-08-19T10:05:29.989Z,11.09
2018-08-19T10:06:30.459Z,10.70
2018-08-19T10:07:30.995Z,10.46
2018-08-19T10:08:31.613Z,10.58
2018-08-19T10:09:31.887Z,10.66
2018-08-19T10:10:32.363Z,10.81
2018-08-19T10:11:32.836Z,10.93
2018-08-19T10:12:33.312Z,11.00
2018-08-19T10:13:33.812Z,11.11
2018-08-19T10:14:34.262Z,11.26
2018-08-19T10:15:34.737Z,11.59
2018-08-19T10:16:35.414Z,11.86
2018-08-19T10:17:35.710Z,11.58
2018-08-19T10:18:36.159Z,11.56
2018-08-19T10:19:36.636Z,11.78
2018-08-19T10:20:37.111Z,11.92
2018-08-19T10:21:37.588Z,12.21
2018-08-19T10:22:38.060Z,12.32
2018-08-19T10:23:38.537Z,12.31
2018-08-19T10:24:39.015Z,12.12
2018-08-19T10:25:39.486Z,11.91
2018-08-19T10:26:39.974Z,11.89
2018-08-19T10:27:40.436Z,11.86
2018-08-19T10:28:40.912Z,11.64
2018-08-19T10:29:41.388Z,11.56
2018-08-19T10:30:41.866Z,11.57
2018-08-19T10:31:42.339Z,11.66
2018-08-19T10:32:42.812Z,11.76
2018-08-19T10:33:43.288Z,11.77
2018-08-19T10:34:43.762Z,11.92
2018-08-19T10:35:44.238Z,12.06
2018-08-19T10:36:44.714Z,12.17
2018-08-19T10:37:45.190Z,12.02
2018-08-19T10:38:45.663Z,11.77
2018-08-19T10:39:46.139Z,11.73
2018-08-19T10:40:46.619Z,11.66
2018-08-19T10:41:47.108Z,11.47
2018-08-19T10:42:47.565Z,11.37
2018-08-19T10:43:48.045Z,11.41
2018-08-19T10:44:48.539Z,11.66
2018-08-19T10:45:48.991Z,11.80
2018-08-19T10:46:49.467Z,12.07
2018-08-19T10:47:49.945Z,12.35
2018-08-19T10:48:50.416Z,12.64
2018-08-19T10:49:50.894Z,12.72
2018-08-19T10:50:51.370Z,12.68
2018-08-19T10:51:51.845Z,12.34
2018-08-19T10:52:52.320Z,11.96
2018-08-19T10:53:52.795Z,11.66
2018-08-19T10:54:53.270Z,11.54
2018-08-19T10:55:53.752Z,11.62
2018-08-19T10:56:54.221Z,11.72
2018-08-19T10:57:54.698Z,11.94
2018-08-19T10:58:55.224Z,11.94
2018-08-19T10:59:55.716Z,11.70
2018-08-19T11:00:56.126Z,11.76
2018-08-19T11:01:56.602Z,11.96
2018-08-19T11:02:57.076Z,12.24
2018-08-19T11:03:57.553Z,12.38
2018-08-19T11:04:58.039Z,12.30
2018-08-19T11:05:58.504Z,11.93
2018-08-19T11:06:58.980Z,11.54
2018-08-19T11:07:59.456Z,11.44
2018-08-19T11:08:59.932Z,11.52
2018-08-19T11:10:00.407Z,11.42
2018-08-19T11:11:00.883Z,11.27
2018-08-19T11:12:01.359Z,11.22
2018-08-19T11:13:01.834Z,11.24
2018-08-19T11:14:02.313Z,11.46
2018-08-19T11:15:02.790Z,11.64
2018-08-19T11:16:03.264Z,11.85
2018-08-19T11:17:03.743Z,11.96
2018-08-19T11:18:04.216Z,12.00
2018-08-19T11:19:04.691Z,12.06
2018-08-19T11:20:05.171Z,12.17
2018-08-19T11:21:05.715Z,12.11
2018-08-19T11:22:06.121Z,12.02
2018-08-19T11:23:06.596Z,12.07
2018-08-19T11:24:07.073Z,12.16
2018-08-19T11:25:07.549Z,12.16
2018-08-19T11:26:08.025Z,12.08
2018-08-19T11:27:08.501Z,12.00
2018-08-19T11:28:08.977Z,11.97
2018-08-19T11:29:09.452Z,12.01
2018-08-19T11:30:09.929Z,11.92
2018-08-19T11:31:10.405Z,11.94
2018-08-19T11:32:10.881Z,11.92
2018-08-19T11:33:11.357Z,11.68
2018-08-19T11:34:11.834Z,11.56
2018-08-19T11:35:12.310Z,11.72
2018-08-19T11:36:12.785Z,11.93
2018-08-19T11:37:13.262Z,11.98
2018-08-19T11:38:13.740Z,12.16
2018-08-19T11:39:14.215Z,12.24
2018-08-19T11:40:14.692Z,12.30
2018-08-19T11:41:15.169Z,12.11
2018-08-19T11:42:15.650Z,11.95
2018-08-19T11:43:16.149Z,11.75
2018-08-19T11:44:16.598Z,11.38
2018-08-19T11:45:17.073Z,11.21
2018-08-19T11:46:17.551Z,11.14
2018-08-19T11:47:18.026Z,11.16
2018-08-19T11:48:18.503Z,11.41
2018-08-19T11:49:18.979Z,11.70
2018-08-19T11:50:19.456Z,11.84
2018-08-19T11:51:19.934Z,11.91
2018-08-19T11:52:20.409Z,11.71
2018-08-19T11:53:20.884Z,11.57
2018-08-19T11:54:21.363Z,11.56
2018-08-19T11:55:21.864Z,11.70
2018-08-19T11:56:22.321Z,11.76
2018-08-19T11:57:22.792Z,11.78
2018-08-19T11:58:23.270Z,11.73
2018-08-19T11:59:23.746Z,11.75
2018-08-19T12:00:24.221Z,11.79
2018-08-19T12:01:24.699Z,11.80
2018-08-19T12:02:25.177Z,11.86
2018-08-19T12:03:25.653Z,11.87
2018-08-19T12:04:26.181Z,11.78
2018-08-19T12:05:26.607Z,11.79
2018-08-19T12:06:27.087Z,11.87
2018-08-19T12:07:27.560Z,11.88
2018-08-19T12:08:28.038Z,11.96
2018-08-19T12:09:28.540Z,12.12
2018-08-19T12:10:28.995Z,12.10
2018-08-19T12:11:29.470Z,11.98
2018-08-19T12:12:29.947Z,11.84
2018-08-19T12:13:30.424Z,11.80
2018-08-19T12:14:30.900Z,11.66
2018-08-19T12:15:31.377Z,11.53
2018-08-19T12:16:31.856Z,11.64
2018-08-19T12:17:32.332Z,11.71
2018-08-19T12:18:32.809Z,11.70
2018-08-19T12:19:33.287Z,11.73
2018-08-19T12:20:33.764Z,11.67
2018-08-19T12:21:34.242Z,11.64
2018-08-19T12:22:34.720Z,11.58
2018-08-19T12:23:35.197Z,11.70
2018-08-19T12:24:35.675Z,11.80
2018-08-19T12:25:36.156Z,11.78
2018-08-19T12:26:36.629Z,11.76
2018-08-19T12:27:37.198Z,11.79
2018-08-19T12:28:37.585Z,11.95
2018-08-19T12:29:38.060Z,12.04
2018-08-19T12:30:38.539Z,11.85
2018-08-19T12:31:39.017Z,11.59
2018-08-19T12:32:39.494Z,11.46
2018-08-19T12:33:39.972Z,11.50
2018-08-19T12:34:40.451Z,11.35
2018-08-19T12:35:40.928Z,11.25
2018-08-19T12:36:41.406Z,11.24
2018-08-19T12:37:41.961Z,11.14
2018-08-19T12:38:42.361Z,10.94
2018-08-19T12:39:42.839Z,10.96
2018-08-19T12:40:43.317Z,10.90
2018-08-19T12:41:43.797Z,11.05
2018-08-19T12:42:44.272Z,11.04
2018-08-19T12:43:44.749Z,11.13
2018-08-19T12:44:45.290Z,11.23
2018-08-19T12:45:45.706Z,11.44
2018-08-19T12:46:46.183Z,11.62
2018-08-19T12:47:46.866Z,11.68
2018-08-19T12:48:47.141Z,11.69
2018-08-19T12:49:47.618Z,11.63
2018-08-19T12:50:48.096Z,11.50
2018-08-19T12:51:48.575Z,11.34
2018-08-19T12:52:49.056Z,11.16
2018-08-19T12:53:49.530Z,11.12
2018-08-19T12:54:50.011Z,10.98
2018-08-19T12:55:50.508Z,10.89
2018-08-19T12:56:50.970Z,10.75
2018-08-19T12:57:51.444Z,10.70
2018-08-19T12:58:51.923Z,10.79
2018-08-19T12:59:52.400Z,10.84
2018-08-19T13:00:52.879Z,10.92
2018-08-19T13:01:53.357Z,10.96
2018-08-19T13:02:53.839Z,11.00
2018-08-19T13:03:54.312Z,11.06
2018-08-19T13:04:54.793Z,10.92
2018-08-19T13:05:55.272Z,10.74
2018-08-19T13:06:55.751Z,10.62
2018-08-19T13:07:56.266Z,10.68
2018-08-19T13:08:56.707Z,10.55
2018-08-19T13:09:57.185Z,10.32
2018-08-19T13:10:57.662Z,10.30
2018-08-19T13:11:58.141Z,10.18
2018-08-19T13:12:58.620Z,10.12
2018-08-19T13:13:59.098Z,10.11
2018-08-19T13:14:59.576Z,10.11